Terminal Aerodrome Forecast
Issued by NWS

Home | Current Version | Previous Version | Graphics & Text | Print | Product List | Glossary Off
Versions: 1 2 3 4 5 6 7 8 9 10 11 12 13 14 15 16 17 18 19 20 21 22 23 24 25 26 27 28 29 30 31 32

000
FTUS45 KGGW 301700
TAFGDV
TAF
KGDV 301720Z 3018/0118 23011KT P6SM VCTS BKN100CB
     FM302100 30015KT P6SM VCTS SCT100CB
     FM010200 03014KT 5SM FU SCT100
      AMD LTD TO CLD VIS AND WIND=

USA.gov is the U.S. government's official web portal to all federal, state and local government web resources and services.